Dorothy Gale — WDH5089 — position and weather

sailwx.info

Track history (hours):
 
Tides and Currents Weather Stations Pressure Air Temp Water Temp Dewpoint Dewpoint Depression Visibility Wind Speed Wind Dir Waves Ship Positions

Dorothy Gale

Owner: Lioio, Richard J, Redondo Beach, CA. More information available from US FCC via Universal Licensing System and Coast Guard Vessel Documentation Center.

Last reported at 2017-Oct-27 19:13 UTC. Time now 2017-Nov-25 02:16 UTC.
Position N 32°43' W 117°14'.
Warning: this ship's position is 28 days out of date.

Length 14 m.

Type: Sailing vessel. MMSI: 367624420.

Date/timePositionNaut miles runAvg speedWind from/ knotsBaromVisibWave heightAir tempDewpointWater temp
2017-Oct-27 19:13N 32°43' W 117°14'7 0.3
2017-Oct-26 17:21N 32°47' W 117°21'3 7.1
2017-Oct-26 16:59N 32°49' W 117°22'3 6.9
2017-Oct-26 16:30N 32°53' W 117°23'3 7.0
2017-Oct-26 16:00N 32°56' W 117°23'4 7.2
2017-Oct-26 15:30N 32°60' W 117°23'4 7.2
2017-Oct-26 15:00N 33°03' W 117°24'4 7.1
2017-Oct-26 14:30N 33°07' W 117°24'4 7.3
2017-Oct-26 14:00N 33°10' W 117°24'2 0.1
2017-Oct-26 00:43N 33°12' W 117°24'2 6.5
2017-Oct-26 00:27N 33°13' W 117°26'45 7.4
2017-Oct-25 18:21N 33°37' W 118°12'3 7.1
2017-Oct-25 17:58N 33°39' W 118°14'  
Track history (hours):
 
Tides and Currents Weather Stations Pressure Air Temp Water Temp Dewpoint Dewpoint Depression Visibility Wind Speed Wind Dir Waves Ship Positions

Dorothy Gale

Owner: Lioio, Richard J, Redondo Beach, CA. More information available from US FCC via Universal Licensing System and Coast Guard Vessel Documentation Center.

Last reported at 2017-Oct-27 19:13 UTC. Time now 2017-Nov-25 02:16 UTC.
Position N 32°43' W 117°14'.
Warning: this ship's position is 28 days out of date.

Length 14 m.

Type: Sailing vessel. MMSI: 367624420.

Date/timePositionNaut miles runAvg speedWind from/ knotsBaromVisibWave heightAir tempDewpointWater temp
2017-Oct-27 19:13N 32°43' W 117°14'7 0.3
2017-Oct-26 17:21N 32°47' W 117°21'3 7.1
2017-Oct-26 16:59N 32°49' W 117°22'3 6.9
2017-Oct-26 16:30N 32°53' W 117°23'3 7.0
2017-Oct-26 16:00N 32°56' W 117°23'4 7.2
2017-Oct-26 15:30N 32°60' W 117°23'4 7.2
2017-Oct-26 15:00N 33°03' W 117°24'4 7.1
2017-Oct-26 14:30N 33°07' W 117°24'4 7.3
2017-Oct-26 14:00N 33°10' W 117°24'2 0.1
2017-Oct-26 00:43N 33°12' W 117°24'2 6.5
2017-Oct-26 00:27N 33°13' W 117°26'45 7.4
2017-Oct-25 18:21N 33°37' W 118°12'3 7.1
2017-Oct-25 17:58N 33°39' W 118°14'  

Dump ship's entire track history